Time;durP1;ratioP1;P1;durP2;ratioP2;P2;SDS_P1;SDS_P2;PMS_P1;PMS_P2;Temp;Humidity;BMP_temperature;BMP_pressure;BME280_temperature;BME280_humidity;BME280_pressure;Samples;Min_cycle;Max_cycle;Signal;HPM_P1;HPM_P2
2021/01/05 00:00:51;;;;;;;10.63;6.30;;;2.80;99.90;;;;;;6745774;88;20714;-77
2021/01/05 00:10:51;;;;;;;12.25;6.60;;;2.80;99.90;;;;;;6749633;88;20202;-76
2021/01/05 00:20:52;;;;;;;10.85;6.03;;;2.80;99.90;;;;;;6748554;88;20206;-77
2021/01/05 00:30:52;;;;;;;12.52;6.00;;;2.80;99.90;;;;;;6748192;88;20703;-77
2021/01/05 00:40:53;;;;;;;12.90;6.55;;;2.70;99.90;;;;;;6747835;88;20980;-77
2021/01/05 00:50:53;;;;;;;11.90;6.05;;;2.80;99.90;;;;;;6748163;88;20231;-77
2021/01/05 01:00:54;;;;;;;11.40;6.43;;;2.80;99.90;;;;;;6747732;88;20205;-76
2021/01/05 01:10:55;;;;;;;11.30;5.78;;;2.90;99.90;;;;;;6749471;88;20206;-76
2021/01/05 01:20:56;;;;;;;12.20;6.18;;;2.80;99.90;;;;;;6747523;88;20189;-77
2021/01/05 01:30:56;;;;;;;11.60;6.30;;;2.90;99.90;;;;;;6747635;88;20246;-77
2021/01/05 01:40:57;;;;;;;12.02;6.82;;;2.80;99.90;;;;;;6747250;87;20598;-77
2021/01/05 01:51:01;;;;;;;13.18;7.40;;;3.00;99.90;;;;;;6747108;88;20203;-76
2021/01/05 02:01:10;;;;;;;12.68;6.95;;;2.90;99.90;;;;;;6742356;88;21120;-76
2021/01/05 02:11:18;;;;;;;14.90;6.70;;;2.80;99.90;;;;;;6743723;88;20231;-77
2021/01/05 02:21:23;;;;;;;12.57;7.10;;;2.90;99.90;;;;;;6741675;88;20195;-77
2021/01/05 02:31:42;;;;;;;13.70;6.75;;;2.80;99.90;;;;;;6746905;88;20673;-77
2021/01/05 02:42:19;;;;;;;12.10;6.87;;;2.70;99.90;;;;;;6743025;88;20282;-77
2021/01/05 02:53:04;;;;;;;11.93;6.67;;;2.80;99.90;;;;;;6742494;88;20207;-77
2021/01/05 03:03:24;;;;;;;14.07;6.90;;;2.90;99.90;;;;;;6740792;88;20699;-77
2021/01/05 03:13:49;;;;;;;13.18;7.07;;;2.80;99.90;;;;;;6733138;88;20316;-77
2021/01/05 03:23:50;;;;;;;13.05;6.95;;;2.80;99.90;;;;;;6746314;88;20221;-77
2021/01/05 03:33:58;;;;;;;13.88;7.07;;;2.90;99.90;;;;;;6753869;88;20316;-76
2021/01/05 03:43:59;;;;;;;13.48;7.47;;;2.90;99.90;;;;;;6758850;88;20200;-79
2021/01/05 03:53:59;;;;;;;14.65;7.03;;;2.80;99.90;;;;;;6753114;88;20191;-78
2021/01/05 04:04:00;;;;;;;14.05;6.93;;;2.80;99.90;;;;;;6756069;88;20211;-76
2021/01/05 04:14:00;;;;;;;12.98;7.43;;;2.80;99.90;;;;;;6748418;88;20177;-77
2021/01/05 04:24:01;;;;;;;13.43;6.70;;;2.80;99.90;;;;;;6750826;88;20183;-77
2021/01/05 04:34:02;;;;;;;13.43;7.25;;;2.80;99.90;;;;;;6748045;88;20948;-77
2021/01/05 04:44:04;;;;;;;13.13;7.18;;;2.70;99.90;;;;;;6746043;87;20214;-75
2021/01/05 04:54:14;;;;;;;15.27;7.57;;;2.80;99.90;;;;;;6744977;88;20223;-77
2021/01/05 05:04:39;;;;;;;14.68;8.02;;;2.80;99.90;;;;;;6749586;88;20181;-76
2021/01/05 05:14:51;;;;;;;13.68;7.03;;;2.90;99.90;;;;;;6747449;88;20342;-76
2021/01/05 05:24:59;;;;;;;13.30;7.50;;;2.70;99.90;;;;;;6747607;88;20630;-76
2021/01/05 05:35:02;;;;;;;14.00;7.40;;;2.90;99.90;;;;;;6741751;88;20665;-76
2021/01/05 05:45:11;;;;;;;13.98;7.22;;;2.90;99.90;;;;;;6741034;88;20231;-77
2021/01/05 05:55:41;;;;;;;17.35;8.57;;;2.80;99.90;;;;;;6752172;88;20937;-77
2021/01/05 06:05:43;;;;;;;15.52;7.87;;;2.80;99.90;;;;;;6736282;88;20232;-77
2021/01/05 06:15:43;;;;;;;16.87;8.02;;;2.80;99.90;;;;;;6727140;88;20241;-76
2021/01/05 06:25:48;;;;;;;17.23;8.13;;;2.80;99.90;;;;;;6746169;88;20212;-77
2021/01/05 06:35:48;;;;;;;14.87;7.80;;;2.90;99.90;;;;;;6747547;88;20179;-77
2021/01/05 06:45:49;;;;;;;15.27;7.70;;;2.80;99.90;;;;;;6748908;88;20247;-75
2021/01/05 06:55:49;;;;;;;15.52;7.95;;;2.80;99.90;;;;;;6760848;88;20206;-75
2021/01/05 07:05:50;;;;;;;16.27;8.30;;;2.90;99.90;;;;;;6758162;88;20753;-75
2021/01/05 07:15:50;;;;;;;16.02;8.15;;;2.90;99.90;;;;;;6745367;88;20243;-77
2021/01/05 07:25:51;;;;;;;18.08;8.82;;;2.80;99.90;;;;;;6743302;88;20200;-75
2021/01/05 07:35:51;;;;;;;17.83;8.82;;;2.80;99.90;;;;;;6761672;88;20189;-76
2021/01/05 07:45:52;;;;;;;20.35;8.65;;;2.80;99.90;;;;;;6767506;87;20200;-76
2021/01/05 07:55:52;;;;;;;19.15;8.57;;;2.80;99.90;;;;;;6753750;88;20180;-75
2021/01/05 08:05:53;;;;;;;19.70;9.00;;;2.80;99.90;;;;;;6753640;88;20378;-74
2021/01/05 08:15:53;;;;;;;18.45;8.57;;;2.90;99.90;;;;;;6752785;88;20194;-75
2021/01/05 08:25:54;;;;;;;18.92;8.90;;;2.90;99.90;;;;;;6738515;88;20735;-74
2021/01/05 08:35:54;;;;;;;18.87;8.65;;;2.80;99.90;;;;;;6738462;88;20198;-74
2021/01/05 08:45:56;;;;;;;18.00;8.60;;;2.90;99.90;;;;;;6738581;88;20317;-74
2021/01/05 08:55:56;;;;;;;17.30;8.05;;;3.00;99.90;;;;;;6741068;88;20192;-74
2021/01/05 09:05:57;;;;;;;18.67;9.07;;;3.00;99.90;;;;;;6739566;88;20699;-74
2021/01/05 09:15:58;;;;;;;18.60;8.73;;;3.20;99.90;;;;;;6736556;88;20572;-74
2021/01/05 09:25:58;;;;;;;19.35;9.48;;;3.10;99.90;;;;;;6729773;88;20360;-74
2021/01/05 09:35:59;;;;;;;20.00;9.15;;;3.20;99.90;;;;;;6734085;88;20319;-73
2021/01/05 09:45:59;;;;;;;21.75;8.63;;;3.20;99.90;;;;;;6731985;88;20196;-73
2021/01/05 09:56:00;;;;;;;18.65;8.60;;;3.30;99.90;;;;;;6732051;88;20188;-74
2021/01/05 10:06:00;;;;;;;19.73;8.90;;;3.50;99.90;;;;;;6736171;88;20535;-73
2021/01/05 10:16:01;;;;;;;18.75;8.70;;;3.40;99.90;;;;;;6736127;88;20414;-74
2021/01/05 10:26:01;;;;;;;20.48;8.85;;;3.30;99.90;;;;;;6734863;88;20341;-75
2021/01/05 10:36:02;;;;;;;22.27;9.07;;;3.20;99.90;;;;;;6748066;88;20255;-76
2021/01/05 10:46:04;;;;;;;22.83;9.15;;;3.20;99.90;;;;;;6742848;88;20205;-73
2021/01/05 10:56:05;;;;;;;26.60;9.57;;;3.30;99.90;;;;;;6731798;88;20182;-74
2021/01/05 11:06:06;;;;;;;23.95;8.90;;;3.40;99.90;;;;;;6731896;88;20249;-75
2021/01/05 11:16:07;;;;;;;23.48;9.65;;;3.50;99.90;;;;;;6733434;88;20267;-74
2021/01/05 11:26:09;;;;;;;21.27;8.68;;;3.40;99.90;;;;;;6733679;88;20189;-73
2021/01/05 11:36:09;;;;;;;19.62;8.43;;;3.50;99.90;;;;;;6738109;88;20200;-74
2021/01/05 11:46:10;;;;;;;19.37;8.60;;;3.50;99.90;;;;;;6737625;88;20206;-74
2021/01/05 11:56:20;;;;;;;21.02;9.05;;;3.60;99.90;;;;;;6736892;88;20535;-75
2021/01/05 12:06:23;;;;;;;21.62;9.85;;;3.60;99.90;;;;;;6739316;88;20220;-73
2021/01/05 12:16:38;;;;;;;21.65;8.95;;;3.70;99.90;;;;;;6738104;88;20597;-74
2021/01/05 12:26:40;;;;;;;20.52;10.45;;;3.70;99.90;;;;;;6735478;88;20204;-74
2021/01/05 12:36:41;;;;;;;22.08;9.68;;;3.70;99.90;;;;;;6735464;88;20259;-74
2021/01/05 12:46:42;;;;;;;22.10;10.10;;;3.60;99.90;;;;;;6737710;88;20192;-75
2021/01/05 12:56:42;;;;;;;25.25;10.38;;;3.50;99.90;;;;;;6737006;88;20202;-75
2021/01/05 13:06:43;;;;;;;21.35;9.85;;;3.60;99.90;;;;;;6738348;88;20186;-75
2021/01/05 13:16:44;;;;;;;22.70;9.70;;;3.70;99.90;;;;;;6736822;88;20196;-75
2021/01/05 13:26:46;;;;;;;21.12;9.48;;;3.60;99.90;;;;;;6734629;88;20188;-74
2021/01/05 13:36:46;;;;;;;20.90;9.93;;;3.70;99.90;;;;;;6738173;88;20181;-74
2021/01/05 13:46:47;;;;;;;22.23;10.32;;;3.70;99.90;;;;;;6735439;88;20297;-75
2021/01/05 13:56:58;;;;;;;23.02;10.35;;;3.40;99.90;;;;;;6736921;88;20524;-74
2021/01/05 14:07:01;;;;;;;24.05;10.48;;;3.40;99.90;;;;;;6736019;88;20346;-75
2021/01/05 14:17:02;;;;;;;19.85;9.32;;;3.50;99.90;;;;;;6740856;88;21007;-75
2021/01/05 14:27:04;;;;;;;25.02;10.00;;;3.60;99.90;;;;;;6740051;88;20256;-75
2021/01/05 14:37:11;;;;;;;21.90;9.80;;;3.60;99.90;;;;;;6741998;88;20947;-74
2021/01/05 14:47:20;;;;;;;25.95;10.77;;;3.50;99.90;;;;;;6738436;88;20212;-75
2021/01/05 14:57:21;;;;;;;25.45;10.90;;;3.60;99.90;;;;;;6745890;88;20594;-77
2021/01/05 15:07:22;;;;;;;21.17;9.77;;;3.60;99.90;;;;;;6743064;88;20180;-75
2021/01/05 15:17:22;;;;;;;22.10;10.93;;;3.60;99.90;;;;;;6738346;88;20220;-74
2021/01/05 15:27:23;;;;;;;20.33;9.43;;;3.50;99.90;;;;;;6735191;88;20950;-75
2021/01/05 15:37:25;;;;;;;15.38;7.70;;;3.70;99.90;;;;;;6734242;88;20205;-73
2021/01/05 15:47:26;;;;;;;14.70;7.00;;;3.70;99.90;;;;;;6739553;88;20189;-74
2021/01/05 15:57:26;;;;;;;14.52;7.20;;;3.70;99.90;;;;;;6736116;88;20274;-74
2021/01/05 16:07:27;;;;;;;14.45;7.07;;;3.70;99.90;;;;;;6736132;88;20184;-74
2021/01/05 16:17:27;;;;;;;13.80;7.05;;;3.60;99.90;;;;;;6732190;88;20196;-74
2021/01/05 16:27:28;;;;;;;13.95;7.28;;;3.70;99.90;;;;;;6731648;88;20758;-74
2021/01/05 16:37:28;;;;;;;14.68;7.28;;;3.60;99.90;;;;;;6737248;88;20325;-75
2021/01/05 16:47:29;;;;;;;13.45;6.80;;;3.50;99.90;;;;;;6738360;88;20230;-75
2021/01/05 16:57:29;;;;;;;12.50;6.57;;;3.50;99.90;;;;;;6737345;88;20239;-75
2021/01/05 17:07:30;;;;;;;14.37;7.10;;;3.70;99.90;;;;;;6735377;88;20206;-74
2021/01/05 17:17:33;;;;;;;14.20;6.70;;;3.60;99.90;;;;;;6724904;88;21264;-74
2021/01/05 17:27:33;;;;;;;15.50;7.53;;;3.60;99.90;;;;;;6731657;88;21072;-74
2021/01/05 17:37:34;;;;;;;13.15;6.65;;;3.50;99.90;;;;;;6730741;88;20176;-74
2021/01/05 17:47:34;;;;;;;15.57;7.25;;;3.60;99.90;;;;;;6736003;88;20189;-74
2021/01/05 17:57:35;;;;;;;12.95;6.93;;;3.60;99.90;;;;;;6746027;88;20220;-75
2021/01/05 18:07:36;;;;;;;15.10;7.25;;;3.60;99.90;;;;;;6740412;88;20221;-74
2021/01/05 18:17:37;;;;;;;16.90;7.68;;;3.50;99.90;;;;;;6734120;88;20181;-74
2021/01/05 18:27:37;;;;;;;14.87;7.47;;;3.60;99.90;;;;;;6735329;88;20198;-74
2021/01/05 18:37:38;;;;;;;14.80;7.25;;;3.60;99.90;;;;;;6744484;88;20208;-72
2021/01/05 18:47:38;;;;;;;13.85;7.10;;;3.70;99.90;;;;;;6737805;88;20964;-71
2021/01/05 18:57:39;;;;;;;16.05;7.75;;;3.50;99.90;;;;;;6736453;88;20521;-72
2021/01/05 19:07:40;;;;;;;15.85;8.07;;;3.50;99.90;;;;;;6732409;88;20651;-73
2021/01/05 19:17:44;;;;;;;20.80;9.68;;;3.50;99.90;;;;;;6737198;88;21006;-73
2021/01/05 19:27:50;;;;;;;19.37;9.82;;;3.40;99.90;;;;;;6737355;88;20260;-74
2021/01/05 19:37:51;;;;;;;19.50;9.20;;;3.50;99.90;;;;;;6730086;88;20185;-73
2021/01/05 19:47:55;;;;;;;19.37;8.70;;;3.50;99.90;;;;;;6744836;88;20661;-73
2021/01/05 19:57:57;;;;;;;20.65;10.02;;;3.40;99.90;;;;;;6741181;88;20194;-72
2021/01/05 20:08:00;;;;;;;22.08;9.82;;;3.40;99.90;;;;;;6738083;88;20190;-73
2021/01/05 20:18:01;;;;;;;19.98;9.30;;;3.40;99.90;;;;;;6735687;88;20198;-73
2021/01/05 20:28:01;;;;;;;19.87;9.60;;;3.50;99.90;;;;;;6742763;88;20172;-73
2021/01/05 20:38:02;;;;;;;18.87;9.68;;;3.30;99.90;;;;;;6736071;88;20223;-73
2021/01/05 20:48:05;;;;;;;19.90;9.38;;;3.30;99.90;;;;;;6729519;88;20210;-73
2021/01/05 20:58:05;;;;;;;19.85;9.20;;;3.40;99.90;;;;;;6726034;88;20716;-73
2021/01/05 21:08:06;;;;;;;18.42;8.88;;;3.40;99.90;;;;;;6727751;88;20188;-73
2021/01/05 21:18:10;;;;;;;17.95;9.02;;;3.40;99.90;;;;;;6724985;88;20863;-73
2021/01/05 21:28:11;;;;;;;15.68;8.40;;;3.30;99.90;;;;;;6728970;88;20188;-73
2021/01/05 21:38:21;;;;;;;18.12;8.95;;;3.40;99.90;;;;;;6741964;88;20917;-75
2021/01/05 21:48:24;;;;;;;15.55;7.97;;;3.30;99.90;;;;;;6745893;88;20184;-75
2021/01/05 21:58:26;;;;;;;18.20;8.65;;;3.40;99.90;;;;;;6735494;88;20610;-74
2021/01/05 22:08:27;;;;;;;15.90;8.05;;;3.20;99.90;;;;;;6736177;88;20239;-75
2021/01/05 22:18:27;;;;;;;15.77;8.00;;;3.30;99.90;;;;;;6748102;88;20728;-75
2021/01/05 22:28:28;;;;;;;15.45;7.78;;;3.30;99.90;;;;;;6743913;88;20200;-76
2021/01/05 22:38:31;;;;;;;15.02;7.60;;;3.30;99.90;;;;;;6749797;88;20673;-76
2021/01/05 22:48:32;;;;;;;17.37;7.97;;;3.20;99.90;;;;;;6732902;88;20199;-76
2021/01/05 22:58:32;;;;;;;15.40;7.25;;;3.30;99.90;;;;;;6741120;88;20198;-76
2021/01/05 23:08:36;;;;;;;16.20;7.45;;;3.20;99.90;;;;;;6752168;88;20660;-74
2021/01/05 23:18:37;;;;;;;14.63;7.00;;;3.20;99.90;;;;;;6741020;88;20304;-74
2021/01/05 23:28:37;;;;;;;13.27;7.00;;;3.20;99.90;;;;;;6742193;88;20649;-74
2021/01/05 23:38:38;;;;;;;14.95;6.97;;;3.30;99.90;;;;;;6742848;88;20560;-74
2021/01/05 23:48:39;;;;;;;13.77;6.62;;;3.30;99.90;;;;;;6739210;88;20197;-74
2021/01/05 23:58:40;;;;;;;12.95;6.50;;;3.30;99.90;;;;;;6737874;88;20229;-74
